Home > Products > Valid Products > TAF

000
FTUS45 KLKN 190500
TAFELY
TAF
KELY 190520Z 1906/2006 18009KT P6SM SCT080
     FM191700 11009KT P6SM SCT090
     FM200500 16009KT P6SM SKC=



000
FTUS45 KLKN 190500
TAFWMC
TAF
KWMC 190520Z 1906/2006 35009KT 6SM HZ VCSH SCT120 BKN150
     FM191700 36009KT P6SM FEW090
     FM200500 03011G21KT P6SM FEW100=



000
FTUS45 KLKN 190500
TAFWMC
TAF
KWMC 190520Z 1906/2006 35009KT 6SM HZ VCSH SCT120 BKN150
     FM191700 36009KT P6SM FEW090
     FM200500 03011G21KT P6SM FEW100=



000
FTUS45 KLKN 190500
TAFTPH
TAF
KTPH 190520Z 1906/2006 35009KT P6SM SKC
     FM192000 17009KT P6SM FEW090
     FM200500 03009KT P6SM SKC=



000
FTUS45 KLKN 190500
TAFEKO
TAF
KEKO 190520Z 1906/2006 05009KT P6SM SCT090=



000
FTUS45 KLKN 190500
TAFTPH
TAF
KTPH 190520Z 1906/2006 35009KT P6SM SKC
     FM192000 17009KT P6SM FEW090
     FM200500 03009KT P6SM SKC=



000
FTUS45 KLKN 190500
TAFELY
TAF
KELY 190520Z 1906/2006 18009KT P6SM SCT080
     FM191700 11009KT P6SM SCT090
     FM200500 16009KT P6SM SKC=



000
FTUS45 KLKN 190500
TAFEKO
TAF
KEKO 190520Z 1906/2006 05009KT P6SM SCT090=



000
FTUS45 KLKN 182300
TAFELY
TAF
KELY 182320Z 1900/1924 19012G22KT P6SM VCTS SCT080CB BKN120
      TEMPO 1900/1903 VRB25G45KT 4SM TSRA BKN080CB
     FM190600 18008KT P6SM SCT120=



000
FTUS45 KLKN 182300
TAFTPH
TAF
KTPH 182320Z 1900/1924 20012G22KT P6SM SCT120
     FM190200 VRB06KT P6SM SKC
     FM190600 01008KT P6SM SKC
     FM191800 19010KT P6SM SCT120=



000
FTUS45 KLKN 182300
TAFEKO
TAF
KEKO 182320Z 1900/1924 23010KT P6SM VCTS SCT080CB BKN120
     FM191200 VRB06KT P6SM VCSH SCT080 BKN120
     FM191800 04007KT P6SM SCT120=



000
FTUS45 KLKN 182300
TAFWMC
TAF
KWMC 182320Z 1900/1924 32006KT 3SM HZ FU BKN120
     FM191800 36009KT 5SM HZ FU SCT120=



000
FTUS45 KLKN 182300
TAFWMC
TAF
KWMC 182320Z 1900/1924 32006KT 3SM HZ FU BKN120
     FM191800 36009KT 5SM HZ FU SCT120=



000
FTUS45 KLKN 182300
TAFTPH
TAF
KTPH 182320Z 1900/1924 20012G22KT P6SM SCT120
     FM190200 VRB06KT P6SM SKC
     FM190600 01008KT P6SM SKC
     FM191800 19010KT P6SM SCT120=



000
FTUS45 KLKN 182300
TAFELY
TAF
KELY 182320Z 1900/1924 19012G22KT P6SM VCTS SCT080CB BKN120
      TEMPO 1900/1903 VRB25G45KT 4SM TSRA BKN080CB
     FM190600 18008KT P6SM SCT120=



000
FTUS45 KLKN 182300
TAFEKO
TAF
KEKO 182320Z 1900/1924 23010KT P6SM VCTS SCT080CB BKN120
     FM191200 VRB06KT P6SM VCSH SCT080 BKN120
     FM191800 04007KT P6SM SCT120=



000
FTUS45 KLKN 182200 AAA
TAFEKO
TAF AMD
KEKO 182235Z 1823/1918 23010KT P6SM VCTS BKN080CB
      TEMPO 1823/1824 VRB25G45KT 4SM TSRA BKN060CB
     FM191200 VRB06KT P6SM SCT120=



000
FTUS45 KLKN 182200 AAA
TAFEKO
TAF AMD
KEKO 182235Z 1823/1918 23010KT P6SM VCTS BKN080CB
      TEMPO 1823/1824 VRB25G45KT 4SM TSRA BKN060CB
     FM191200 VRB06KT P6SM SCT120=



000
FTUS45 KLKN 182100 AAA
TAFWMC
TAF AMD
KWMC 182108Z 1821/1918 30008G18KT 3SM HZ FU BKN110
      TEMPO 1821/1823 1SM HZ FU VV035
     FM190400 VRB05KT 5SM HZ FU SCT120=



000
FTUS45 KLKN 182100 AAA
TAFWMC
TAF AMD
KWMC 182108Z 1821/1918 30008G18KT 3SM HZ FU BKN110
      TEMPO 1821/1823 1SM HZ FU VV035
     FM190400 VRB05KT 5SM HZ FU SCT120=



000
FTUS45 KLKN 181700
TAFWMC
TAF
KWMC 181733Z 1818/1918 29005KT 2SM FU BKN110
      TEMPO 1818/1821 3/4SM HZ VV035
     FM182100 30008G18KT 6SM HZ FU BKN110
     FM190400 VRB05KT 5SM HZ FU SCT120=



000
FTUS45 KLKN 181700
TAFTPH
TAF
KTPH 181733Z 1818/1918 19013G23KT P6SM FEW100
     FM190200 VRB06KT P6SM SKC
     FM190600 01008KT P6SM SKC=



000
FTUS45 KLKN 181700
TAFELY
TAF
KELY 181733Z 1818/1918 17012G22KT P6SM VCTS SCT080CB BKN120
      TEMPO 1823/1903 VRB25G45KT 4SM TSRA BKN070CB
     FM190600 18008KT P6SM SKC=



000
FTUS45 KLKN 181700
TAFEKO
TAF
KEKO 181733Z 1818/1918 23010KT P6SM VCTS SCT080CB BKN120
      TEMPO 1819/1823 VRB25G45KT 3SM TSRA BKN060CB
     FM191200 VRB06KT P6SM SCT120=



000
FTUS45 KLKN 181700
TAFTPH
TAF
KTPH 181733Z 1818/1918 19013G23KT P6SM FEW100
     FM190200 VRB06KT P6SM SKC
     FM190600 01008KT P6SM SKC=



000
FTUS45 KLKN 181700
TAFEKO
TAF
KEKO 181733Z 1818/1918 23010KT P6SM VCTS SCT080CB BKN120
      TEMPO 1819/1823 VRB25G45KT 3SM TSRA BKN060CB
     FM191200 VRB06KT P6SM SCT120=



000
FTUS45 KLKN 181700
TAFWMC
TAF
KWMC 181733Z 1818/1918 29005KT 2SM FU BKN110
      TEMPO 1818/1821 3/4SM HZ VV035
     FM182100 30008G18KT 6SM HZ FU BKN110
     FM190400 VRB05KT 5SM HZ FU SCT120=



000
FTUS45 KLKN 181700
TAFELY
TAF
KELY 181733Z 1818/1918 17012G22KT P6SM VCTS SCT080CB BKN120
      TEMPO 1823/1903 VRB25G45KT 4SM TSRA BKN070CB
     FM190600 18008KT P6SM SKC=



000
FTUS45 KLKN 181400 AAB
TAFWMC
TAF AMD
KWMC 181404Z 1814/1912 VRB06KT 3SM FU VCTS SCT030 BKN100CB BKN200
      TEMPO 1814/1817 1SM HZ
     FM181700 29008G18KT P6SM VCTS FEW040 SCT090CB BKN200
     FM190500 VRB06KT P6SM SCT090 BKN200=



000
FTUS45 KLKN 181300 AAA
TAFEKO
TAF AMD
KEKO 181317Z 1813/1912 VRB06KT P6SM VCSH SCT080 BKN120
     FM181500 24008G18KT P6SM VCTS SCT080CB BKN150
     FM190200 VRB06KT P6SM VCTS SCT080CB BKN200=



000
FTUS45 KLKN 181300 AAA
TAFEKO
TAF AMD
KEKO 181317Z 1813/1912 VRB06KT P6SM VCSH SCT080 BKN120
     FM181500 24008G18KT P6SM VCTS SCT080CB BKN150
     FM190200 VRB06KT P6SM VCTS SCT080CB BKN200=



000
FTUS45 KLKN 181300 AAA
TAFWMC
TAF AMD
KWMC 181316Z 1813/1912 VRB06KT 4SM FU VCTS FEW040 SCT100CB BKN200
     FM181700 29008G18KT P6SM VCTS FEW040 SCT090CB BKN200
     FM190500 VRB06KT P6SM SCT090 BKN200=



000
FTUS45 KLKN 181300 AAA
TAFWMC
TAF AMD
KWMC 181316Z 1813/1912 VRB06KT 4SM FU VCTS FEW040 SCT100CB BKN200
     FM181700 29008G18KT P6SM VCTS FEW040 SCT090CB BKN200
     FM190500 VRB06KT P6SM SCT090 BKN200=



000
FTUS45 KLKN 181100
TAFEKO
TAF
KEKO 181120Z 1812/1912 VRB06KT P6SM VCSH SCT080 BKN200
     FM181700 24008G18KT P6SM VCTS SCT080CB BKN150
     FM190200 VRB06KT P6SM VCTS SCT080CB BKN200=



000
FTUS45 KLKN 181100
TAFELY
TAF
KELY 181120Z 1812/1912 18009KT P6SM SCT090
     FM181700 18012G22KT P6SM VCTS SCT070CB BKN200
     FM190500 18008KT P6SM SCT070=



000
FTUS45 KLKN 181100
TAFELY
TAF
KELY 181120Z 1812/1912 18009KT P6SM SCT090
     FM181700 18012G22KT P6SM VCTS SCT070CB BKN200
     FM190500 18008KT P6SM SCT070=



000
FTUS45 KLKN 181100
TAFTPH
TAF
KTPH 181120Z 1812/1912 VRB06KT P6SM SCT070
     FM181700 19013G23KT P6SM FEW080
     FM190200 VRB06KT P6SM FEW100=



000
FTUS45 KLKN 181100
TAFTPH
TAF
KTPH 181120Z 1812/1912 VRB06KT P6SM SCT070
     FM181700 19013G23KT P6SM FEW080
     FM190200 VRB06KT P6SM FEW100=



000
FTUS45 KLKN 181100
TAFEKO
TAF
KEKO 181120Z 1812/1912 VRB06KT P6SM VCSH SCT080 BKN200
     FM181700 24008G18KT P6SM VCTS SCT080CB BKN150
     FM190200 VRB06KT P6SM VCTS SCT080CB BKN200=



000
FTUS45 KLKN 181100
TAFWMC
TAF
KWMC 181120Z 1812/1912 VRB06KT 4SM FU VCSH SCT100 BKN200
     FM181700 29008G18KT P6SM SCT090 BKN200
     FM190500 VRB06KT P6SM SCT090 BKN200=



000
FTUS45 KLKN 181100
TAFWMC
TAF
KWMC 181120Z 1812/1912 VRB06KT 4SM FU VCSH SCT100 BKN200
     FM181700 29008G18KT P6SM SCT090 BKN200
     FM190500 VRB06KT P6SM SCT090 BKN200=



000
FTUS45 KLKN 180500 RRA
TAFEKO
TAF
KEKO 180550Z 1806/1906 VRB06KT P6SM VCTS SCT080CB BKN200
     FM181700 24008G18KT P6SM VCTS SCT080CB BKN150
     FM190200 VRB06KT P6SM VCTS SCT080CB BKN200=



000
FTUS45 KLKN 180500 RRA
TAFWMC
TAF
KWMC 180550Z 1806/1906 VRB06KT 2SM FU BKN025
     FM181100 VRB06KT 4SM FU SCT100 BKN200
     FM181700 29008G18KT P6SM SCT090 BKN200
     FM190500 VRB06KT P6SM VCTS SCT090CB BKN200=



000
FTUS45 KLKN 180500 RRA
TAFELY
TAF
KELY 180550Z 1806/1906 18009KT P6SM SCT090
     FM181700 18012G22KT P6SM VCTS SCT070CB BKN200
     FM190500 18008KT P6SM SCT070=



000
FTUS45 KLKN 180500 RRA
TAFTPH
TAF
KTPH 180550Z 1806/1906 VRB06KT P6SM SCT070
     FM181700 19013G23KT P6SM FEW080
     FM190200 VRB06KT P6SM FEW100=



000
FTUS45 KLKN 180500 RRA
TAFEKO
TAF
KEKO 180550Z 1806/1906 VRB06KT P6SM VCTS SCT080CB BKN200
     FM181700 24008G18KT P6SM VCTS SCT080CB BKN150
     FM190200 VRB06KT P6SM VCTS SCT080CB BKN200=



000
FTUS45 KLKN 180500 RRA
TAFTPH
TAF
KTPH 180550Z 1806/1906 VRB06KT P6SM SCT070
     FM181700 19013G23KT P6SM FEW080
     FM190200 VRB06KT P6SM FEW100=



000
FTUS45 KLKN 180500 RRA
TAFELY
TAF
KELY 180550Z 1806/1906 18009KT P6SM SCT090
     FM181700 18012G22KT P6SM VCTS SCT070CB BKN200
     FM190500 18008KT P6SM SCT070=



000
FTUS45 KLKN 180500 RRA
TAFWMC
TAF
KWMC 180550Z 1806/1906 VRB06KT 2SM FU BKN025
     FM181100 VRB06KT 4SM FU SCT100 BKN200
     FM181700 29008G18KT P6SM SCT090 BKN200
     FM190500 VRB06KT P6SM VCTS SCT090CB BKN200=



000
FTUS45 KLKN 180200 AAD
TAFWMC
TAF AMD
KWMC 180253Z 1803/1824 VRB06KT P6SM SCT100
      TEMPO 1803/1806 1 1/2SM FU BKN025
     FM182000 27009KT P6SM BKN100=



000
FTUS45 KLKN 180200 AAD
TAFWMC
TAF AMD
KWMC 180253Z 1803/1824 VRB06KT P6SM SCT100
      TEMPO 1803/1806 1 1/2SM FU BKN025
     FM182000 27009KT P6SM BKN100=



000
FTUS45 KLKN 180200 AAC
TAFWMC
TAF AMD
KWMC 180249Z 1803/1824 VRB06KT P6SM SCT100
      TEMPO 1803/1804 1 1/2SM BLDU BKN025
     FM182000 27009KT P6SM BKN100=



000
FTUS45 KLKN 180200 AAC
TAFWMC
TAF AMD
KWMC 180249Z 1803/1824 VRB06KT P6SM SCT100
      TEMPO 1803/1804 1 1/2SM BLDU BKN025
     FM182000 27009KT P6SM BKN100=



000
FTUS45 KLKN 180200 AAA
TAFELY
TAF AMD
KELY 180227Z 1802/1824 18009KT P6SM SCT120
     FM181700 19015G25KT P6SM VCTS BKN100CB=



000
FTUS45 KLKN 180200 AAA
TAFTPH
TAF AMD
KTPH 180227Z 1802/1824 15008KT P6SM FEW100
     FM180800 33007KT P6SM SKC
     FM181800 19010G20KT P6SM FEW100=



000
FTUS45 KLKN 180200 AAB
TAFEKO
TAF AMD
KEKO 180227Z 1802/1824 22008KT P6SM VCTS SCT100CB
     FM180300 VRB05KT P6SM BKN100
     FM181000 VRB05KT P6SM VCSH BKN090
     FM181900 24008KT P6SM VCTS BKN090CB=



000
FTUS45 KLKN 180200 AAA
TAFELY
TAF AMD
KELY 180227Z 1802/1824 18009KT P6SM SCT120
     FM181700 19015G25KT P6SM VCTS BKN100CB=



000
FTUS45 KLKN 180200 AAB
TAFEKO
TAF AMD
KEKO 180227Z 1802/1824 22008KT P6SM VCTS SCT100CB
     FM180300 VRB05KT P6SM BKN100
     FM181000 VRB05KT P6SM VCSH BKN090
     FM181900 24008KT P6SM VCTS BKN090CB=



000
FTUS45 KLKN 180200 AAB
TAFWMC
TAF AMD
KWMC 180227Z 1802/1824 VRB06KT P6SM SCT100
     FM182000 27009KT P6SM BKN100=



000
FTUS45 KLKN 180200 AAA
TAFTPH
TAF AMD
KTPH 180227Z 1802/1824 15008KT P6SM FEW100
     FM180800 33007KT P6SM SKC
     FM181800 19010G20KT P6SM FEW100=



000
FTUS45 KLKN 180200 AAB
TAFWMC
TAF AMD
KWMC 180227Z 1802/1824 VRB06KT P6SM SCT100
     FM182000 27009KT P6SM BKN100=



000
FTUS45 KLKN 180000 AAA
TAFWMC
TAF AMD
KWMC 180045Z 1801/1824 24012G20KT P6SM FEW100
     FM180300 VRB06KT P6SM SCT100
     FM182000 27009KT P6SM BKN100=



000
FTUS45 KLKN 180000 AAA
TAFWMC
TAF AMD
KWMC 180045Z 1801/1824 24012G20KT P6SM FEW100
     FM180300 VRB06KT P6SM SCT100
     FM182000 27009KT P6SM BKN100=



000
FTUS45 KLKN 180000 AAA
TAFEKO
TAF AMD
KEKO 180014Z 1800/1824 22008KT P6SM VCTS SCT100CB
      TEMPO 1800/1803 VRB30G45KT 5SM -TSRA OVC080CB
     FM180300 VRB05KT P6SM BKN100
     FM181000 VRB05KT P6SM VCSH BKN090
     FM181900 24008KT P6SM VCTS BKN090CB=



000
FTUS45 KLKN 180000 AAA
TAFEKO
TAF AMD
KEKO 180014Z 1800/1824 22008KT P6SM VCTS SCT100CB
      TEMPO 1800/1803 VRB30G45KT 5SM -TSRA OVC080CB
     FM180300 VRB05KT P6SM BKN100
     FM181000 VRB05KT P6SM VCSH BKN090
     FM181900 24008KT P6SM VCTS BKN090CB=



000
FTUS45 KLKN 172300
TAFELY
TAF
KELY 172320Z 1800/1824 18011G21KT P6SM VCTS SCT100CB
     FM180300 18010KT P6SM SCT120
     FM181700 19015G25KT P6SM VCTS BKN100CB=



000
FTUS45 KLKN 172300
TAFEKO
TAF
KEKO 172320Z 1800/1824 22008KT P6SM FEW100
     FM180200 VRB05KT P6SM BKN100
     FM181000 VRB05KT P6SM VCSH BKN090
     FM181900 24008KT P6SM VCTS BKN090CB=



000
FTUS45 KLKN 172300
TAFWMC
TAF
KWMC 172320Z 1800/1824 21008KT P6SM FEW100
     FM180300 VRB06KT P6SM SCT100
     FM182000 27009KT P6SM BKN100=



000
FTUS45 KLKN 172300
TAFTPH
TAF
KTPH 172320Z 1800/1824 19015G25KT P6SM SCT090
     FM180400 15008KT P6SM FEW100
     FM180800 33007KT P6SM SKC
     FM181800 19010G20KT P6SM FEW100=



000
FTUS45 KLKN 172300
TAFTPH
TAF
KTPH 172320Z 1800/1824 19015G25KT P6SM SCT090
     FM180400 15008KT P6SM FEW100
     FM180800 33007KT P6SM SKC
     FM181800 19010G20KT P6SM FEW100=



000
FTUS45 KLKN 172300
TAFWMC
TAF
KWMC 172320Z 1800/1824 21008KT P6SM FEW100
     FM180300 VRB06KT P6SM SCT100
     FM182000 27009KT P6SM BKN100=



000
FTUS45 KLKN 172300
TAFEKO
TAF
KEKO 172320Z 1800/1824 22008KT P6SM FEW100
     FM180200 VRB05KT P6SM BKN100
     FM181000 VRB05KT P6SM VCSH BKN090
     FM181900 24008KT P6SM VCTS BKN090CB=



000
FTUS45 KLKN 172300
TAFELY
TAF
KELY 172320Z 1800/1824 18011G21KT P6SM VCTS SCT100CB
     FM180300 18010KT P6SM SCT120
     FM181700 19015G25KT P6SM VCTS BKN100CB=



000
FTUS45 KLKN 171700
TAFEKO
TAF
KEKO 171720Z 1718/1818 VRB04KT P6SM SCT150 SCT200
     FM172000 22010G20KT P6SM VCTS SCT100CB
     FM180200 VRB06KT P6SM SCT100
     FM180600 21007KT P6SM VCSH BKN090=



000
FTUS45 KLKN 171700
TAFTPH
TAF
KTPH 171720Z 1718/1818 19010G20KT P6SM SKC
     FM172000 19015G25KT P6SM FEW100
     FM180400 15010KT P6SM SKC
     FM180700 VRB06KT P6SM SKC=



000
FTUS45 KLKN 171700
TAFWMC
TAF
KWMC 171720Z 1718/1818 VRB04KT P6SM SCT120
     FM172000 22010G20KT P6SM SCT100
     FM180300 VRB06KT P6SM SCT100=



000
FTUS45 KLKN 171700
TAFELY
TAF
KELY 171720Z 1718/1818 20010KT P6SM SKC
     FM172200 18012G22KT P6SM SCT100
     FM180200 18012KT P6SM FEW120=



000
FTUS45 KLKN 171300 AAA
TAFTPH
TAF AMD
KTPH 171331Z 1714/1812 VRB06KT P6SM SKC
     FM172200 19012G22KT P6SM VCTS SCT080CB
     FM180400 VRB06KT P6SM FEW080=



000
FTUS45 KLKN 171300 AAA
TAFTPH
TAF AMD
KTPH 171331Z 1714/1812 VRB06KT P6SM SKC
     FM172200 19012G22KT P6SM VCTS SCT080CB
     FM180400 VRB06KT P6SM FEW080=



000
FTUS45 KLKN 171300 AAA
TAFELY
TAF AMD
KELY 171330Z 1714/1812 18009KT P6SM SKC
     FM172200 17012G23KT P6SM VCTS SCT080CB
     FM180200 19009KT P6SM VCTS SCT080CB=



000
FTUS45 KLKN 171300 AAA
TAFELY
TAF AMD
KELY 171330Z 1714/1812 18009KT P6SM SKC
     FM172200 17012G23KT P6SM VCTS SCT080CB
     FM180200 19009KT P6SM VCTS SCT080CB=



000
FTUS45 KLKN 171100
TAFWMC
TAF
KWMC 171120Z 1712/1812 VRB06KT P6SM SCT120
     FM172000 22008G18KT P6SM VCTS SCT110CB BKN200
     FM180200 VRB06KT P6SM VCTS SCT100CB BKN200=



000
FTUS45 KLKN 171100
TAFELY
TAF
KELY 171120Z 1712/1812 18009KT P6SM SKC
     FM172000 17008G18KT P6SM SCT080
     FM180200 19009KT P6SM SCT080=



000
FTUS45 KLKN 171100
TAFEKO
TAF
KEKO 171120Z 1712/1812 VRB06KT P6SM FEW100
     FM172000 22008G18KT P6SM VCTS SCT100CB BKN200
     FM180200 VRB06KT P6SM VCTS SCT100CB BKN200=



000
FTUS45 KLKN 171100
TAFTPH
TAF
KTPH 171120Z 1712/1812 VRB06KT P6SM SKC
     FM172000 19012G22KT P6SM SCT080
     FM180200 VRB06KT P6SM FEW080=



000
FTUS45 KLKN 171100
TAFELY
TAF
KELY 171120Z 1712/1812 18009KT P6SM SKC
     FM172000 17008G18KT P6SM SCT080
     FM180200 19009KT P6SM SCT080=



000
FTUS45 KLKN 171100
TAFTPH
TAF
KTPH 171120Z 1712/1812 VRB06KT P6SM SKC
     FM172000 19012G22KT P6SM SCT080
     FM180200 VRB06KT P6SM FEW080=



000
FTUS45 KLKN 171100
TAFEKO
TAF
KEKO 171120Z 1712/1812 VRB06KT P6SM FEW100
     FM172000 22008G18KT P6SM VCTS SCT100CB BKN200
     FM180200 VRB06KT P6SM VCTS SCT100CB BKN200=



000
FTUS45 KLKN 170500
TAFWMC
TAF
KWMC 170520Z 1706/1806 VRB06KT P6SM SCT120
     FM172000 22008G18KT P6SM VCTS SCT110CB BKN200
     FM180200 VRB06KT P6SM VCTS SCT100CB BKN200=



000
FTUS45 KLKN 170500
TAFEKO
TAF
KEKO 170520Z 1706/1806 VRB06KT P6SM FEW100
     FM172000 22008G18KT P6SM VCTS SCT100CB BKN200
     FM180200 VRB06KT P6SM VCTS SCT100CB BKN200=



000
FTUS45 KLKN 170500
TAFTPH
TAF
KTPH 170520Z 1706/1806 VRB06KT P6SM SKC
     FM172000 19012G22KT P6SM SCT080
     FM180200 VRB06KT P6SM FEW080=



000
FTUS45 KLKN 170500
TAFELY
TAF
KELY 170520Z 1706/1806 18009KT P6SM SKC
     FM172000 17008G18KT P6SM SCT080
     FM180200 19009KT P6SM SCT080=



000
FTUS45 KLKN 170500
TAFTPH
TAF
KTPH 170520Z 1706/1806 VRB06KT P6SM SKC
     FM172000 19012G22KT P6SM SCT080
     FM180200 VRB06KT P6SM FEW080=



000
FTUS45 KLKN 170500
TAFWMC
TAF
KWMC 170520Z 1706/1806 VRB06KT P6SM SCT120
     FM172000 22008G18KT P6SM VCTS SCT110CB BKN200
     FM180200 VRB06KT P6SM VCTS SCT100CB BKN200=



000
FTUS45 KLKN 170500
TAFEKO
TAF
KEKO 170520Z 1706/1806 VRB06KT P6SM FEW100
     FM172000 22008G18KT P6SM VCTS SCT100CB BKN200
     FM180200 VRB06KT P6SM VCTS SCT100CB BKN200=



000
FTUS45 KLKN 170500
TAFELY
TAF
KELY 170520Z 1706/1806 18009KT P6SM SKC
     FM172000 17008G18KT P6SM SCT080
     FM180200 19009KT P6SM SCT080=



000
FTUS45 KLKN 170200 AAB
TAFELY
TAF AMD
KELY 170206Z 1702/1724 18010KT P6SM SKC
     FM172000 18010G20KT P6SM SCT100=



000
FTUS45 KLKN 170200 AAB
TAFWMC
TAF AMD
KWMC 170206Z 1702/1724 VRB06KT P6SM SKC
     FM172000 22008KT P6SM SCT100=



000
FTUS45 KLKN 170200 AAB
TAFWMC
TAF AMD
KWMC 170206Z 1702/1724 VRB06KT P6SM SKC
     FM172000 22008KT P6SM SCT100=



000
FTUS45 KLKN 170200 AAB
TAFELY
TAF AMD
KELY 170206Z 1702/1724 18010KT P6SM SKC
     FM172000 18010G20KT P6SM SCT100=



000
FTUS45 KLKN 170100 AAA
TAFELY
TAF AMD
KELY 170105Z 1701/1724 20008G18KT P6SM FEW100
     FM170400 18010KT P6SM SKC
     FM172000 18010G20KT P6SM SCT100=



000
FTUS45 KLKN 170100 AAA
TAFEKO
TAF AMD
KEKO 170105Z 1701/1724 27008G18KT P6SM FEW110
     FM170200 VRB04KT P6SM SKC
     FM172000 23010G20KT P6SM SCT100=



000
FTUS45 KLKN 170100 AAA
TAFEKO
TAF AMD
KEKO 170105Z 1701/1724 27008G18KT P6SM FEW110
     FM170200 VRB04KT P6SM SKC
     FM172000 23010G20KT P6SM SCT100=



000
FTUS45 KLKN 170100 AAA
TAFWMC
TAF AMD
KWMC 170105Z 1701/1724 24008G18KT P6SM SKC
     FM170400 VRB05KT P6SM SKC
     FM172000 22008KT P6SM SCT100=



000
FTUS45 KLKN 170100 AAA
TAFELY
TAF AMD
KELY 170105Z 1701/1724 20008G18KT P6SM FEW100
     FM170400 18010KT P6SM SKC
     FM172000 18010G20KT P6SM SCT100=



000
FTUS45 KLKN 170100 AAA
TAFTPH
TAF AMD
KTPH 170105Z 1701/1724 19007G17KT P6SM SKC
     FM170300 36007KT P6SM SKC
     FM171800 19013G23KT P6SM SKC=



000
FTUS45 KLKN 170100 AAA
TAFTPH
TAF AMD
KTPH 170105Z 1701/1724 19007G17KT P6SM SKC
     FM170300 36007KT P6SM SKC
     FM171800 19013G23KT P6SM SKC=



000
FTUS45 KLKN 170100 AAA
TAFWMC
TAF AMD
KWMC 170105Z 1701/1724 24008G18KT P6SM SKC
     FM170400 VRB05KT P6SM SKC
     FM172000 22008KT P6SM SCT100=



000
FTUS45 KLKN 162300
TAFWMC
TAF
KWMC 162320Z 1700/1724 24008KT P6SM SKC
     FM170400 VRB05KT P6SM SKC
     FM172000 22008KT P6SM SCT100=



000
FTUS45 KLKN 162300
TAFELY
TAF
KELY 162320Z 1700/1724 20010G20KT P6SM FEW100
     FM170400 18010KT P6SM SKC
     FM172000 18010G20KT P6SM SCT100=



000
FTUS45 KLKN 162300
TAFELY
TAF
KELY 162320Z 1700/1724 20010G20KT P6SM FEW100
     FM170400 18010KT P6SM SKC
     FM172000 18010G20KT P6SM SCT100=



000
FTUS45 KLKN 162300
TAFEKO
TAF
KEKO 162320Z 1700/1724 25010G20KT P6SM FEW110
     FM170200 VRB04KT P6SM SKC
     FM172000 23010G20KT P6SM SCT100=



000
FTUS45 KLKN 162300
TAFEKO
TAF
KEKO 162320Z 1700/1724 25010G20KT P6SM FEW110
     FM170200 VRB04KT P6SM SKC
     FM172000 23010G20KT P6SM SCT100=



000
FTUS45 KLKN 162300
TAFWMC
TAF
KWMC 162320Z 1700/1724 24008KT P6SM SKC
     FM170400 VRB05KT P6SM SKC
     FM172000 22008KT P6SM SCT100=



000
FTUS45 KLKN 162300
TAFTPH
TAF
KTPH 162320Z 1700/1724 19012G22KT P6SM SKC
     FM170300 36007KT P6SM SKC
     FM171800 19013G23KT P6SM SKC=



000
FTUS45 KLKN 162300
TAFTPH
TAF
KTPH 162320Z 1700/1724 19012G22KT P6SM SKC
     FM170300 36007KT P6SM SKC
     FM171800 19013G23KT P6SM SKC=



000
FTUS45 KLKN 161700
TAFWMC
TAF
KWMC 161720Z 1618/1718 24008KT P6SM SKC
     FM170400 VRB05KT P6SM SKC=



000
FTUS45 KLKN 161700
TAFELY
TAF
KELY 161720Z 1618/1718 19010G20KT P6SM SCT100
     FM170400 18010KT P6SM SKC=



000
FTUS45 KLKN 161700
TAFELY
TAF
KELY 161720Z 1618/1718 19010G20KT P6SM SCT100
     FM170400 18010KT P6SM SKC=



000
FTUS45 KLKN 161700
TAFEKO
TAF
KEKO 161720Z 1618/1718 VRB03KT P6SM SKC
     FM162000 23009G20KT P6SM FEW120
     FM170200 VRB04KT P6SM SKC=



000
FTUS45 KLKN 161700
TAFWMC
TAF
KWMC 161720Z 1618/1718 24008KT P6SM SKC
     FM170400 VRB05KT P6SM SKC=



000
FTUS45 KLKN 161700
TAFTPH
TAF
KTPH 161720Z 1618/1718 VRB05KT P6SM SKC
     FM162000 21011G21KT P6SM SKC
     FM170200 36007KT P6SM SKC=



000
FTUS45 KLKN 161700
TAFEKO
TAF
KEKO 161720Z 1618/1718 VRB03KT P6SM SKC
     FM162000 23009G20KT P6SM FEW120
     FM170200 VRB04KT P6SM SKC=



000
FTUS45 KLKN 161700
TAFTPH
TAF
KTPH 161720Z 1618/1718 VRB05KT P6SM SKC
     FM162000 21011G21KT P6SM SKC
     FM170200 36007KT P6SM SKC=



000
FTUS45 KLKN 161100
TAFTPH
TAF
KTPH 161121Z 1612/1712 01005KT P6SM SKC
     FM161900 18012G22KT P6SM SKC
     FM170200 36008KT P6SM SKC=



000
FTUS45 KLKN 161100
TAFELY
TAF
KELY 161121Z 1612/1712 16010KT P6SM FEW110
     FM161900 19009KT P6SM SCT110
      TEMPO 1622/1702 VRB15G28KT TS SCT090CB
     FM170400 18013KT P6SM FEW120=



000
FTUS45 KLKN 161100
TAFEKO
TAF
KEKO 161121Z 1612/1712 VRB03KT P6SM SKC
     FM162000 23009KT P6SM SCT120
     FM162200 23012G18KT P6SM VCTS SCT090CB
     FM170200 VRB06KT P6SM FEW130=



000
FTUS45 KLKN 161100
TAFWMC
TAF
KWMC 161121Z 1612/1712 VRB04KT P6SM FEW130
     FM161900 22010KT P6SM FEW100
     FM170100 VRB06KT P6SM FEW110=



000
FTUS45 KLKN 161100
TAFELY
TAF
KELY 161121Z 1612/1712 16010KT P6SM FEW110
     FM161900 19009KT P6SM SCT110
      TEMPO 1622/1702 VRB15G28KT TS SCT090CB
     FM170400 18013KT P6SM FEW120=



000
FTUS45 KLKN 161100
TAFWMC
TAF
KWMC 161121Z 1612/1712 VRB04KT P6SM FEW130
     FM161900 22010KT P6SM FEW100
     FM170100 VRB06KT P6SM FEW110=



000
FTUS45 KLKN 161100
TAFEKO
TAF
KEKO 161121Z 1612/1712 VRB03KT P6SM SKC
     FM162000 23009KT P6SM SCT120
     FM162200 23012G18KT P6SM VCTS SCT090CB
     FM170200 VRB06KT P6SM FEW130=



000
FTUS45 KLKN 161100
TAFTPH
TAF
KTPH 161121Z 1612/1712 01005KT P6SM SKC
     FM161900 18012G22KT P6SM SKC
     FM170200 36008KT P6SM SKC=



    US Dept of Commerce
    National Oceanic and Atmospheric Administration
    National Weather Service
    1325 East West Highway
    Silver Spring, MD 20910
    Page Author: NWS Internet Services Team
Disclaimer
Information Quality
Credits
Glossary
Privacy Policy
Freedom of Information Act (FOIA)
About Us
Career Opportunities